createdAt,value
2019-01-13T00:00:02.665Z,1.4
2019-01-13T00:15:03.229Z,1.4
2019-01-13T00:30:02.979Z,1.4
2019-01-13T00:47:58.594Z,1.4
2019-01-13T01:00:03.253Z,1.4
2019-01-13T01:15:03.332Z,1.3
2019-01-13T01:30:02.812Z,1.4
2019-01-13T01:45:03.027Z,1.4
2019-01-13T02:00:03.330Z,1.5
2019-01-13T02:15:02.554Z,1.5
2019-01-13T02:30:03.047Z,1.4
2019-01-13T02:45:03.314Z,1.3
2019-01-13T03:00:02.907Z,1.3
2019-01-13T03:15:03.002Z,1.2
2019-01-13T03:30:03.337Z,1.2
2019-01-13T03:45:02.592Z,1.2
2019-01-13T04:00:03.023Z,1.1
2019-01-13T04:15:03.373Z,1.3
2019-01-13T04:30:02.977Z,1.4
2019-01-13T04:45:03.311Z,1.6
2019-01-13T05:00:02.605Z,1.6
2019-01-13T05:15:02.900Z,1.6
2019-01-13T05:30:03.212Z,1.5
2019-01-13T05:45:02.734Z,1.4
2019-01-13T06:00:03.057Z,1.5
2019-01-13T06:15:03.288Z,1.5
2019-01-13T06:30:03.052Z,1.6
2019-01-13T06:45:03.370Z,1.8
2019-01-13T07:00:03.141Z,1.8
2019-01-13T07:15:03.350Z,1.8
2019-01-13T07:30:02.734Z,1.8
2019-01-13T07:45:03.050Z,1.7
2019-01-13T08:00:03.256Z,1.8
2019-01-13T08:15:02.664Z,1.9
2019-01-13T08:30:03.070Z,2
2019-01-13T08:45:02.580Z,1.9
2019-01-13T09:00:02.982Z,2.1
2019-01-13T09:15:03.100Z,2.1
2019-01-13T09:30:02.632Z,2.2
2019-01-13T09:45:03.007Z,2.3
2019-01-13T10:00:03.143Z,2.4
2019-01-13T10:15:03.494Z,2.4
2019-01-13T10:30:03.106Z,2.4
2019-01-13T10:45:03.143Z,2.6
2019-01-13T11:00:02.828Z,2.7
2019-01-13T11:15:03.001Z,2.8
2019-01-13T11:30:03.257Z,2.9
2019-01-13T11:45:02.659Z,2.8
2019-01-13T12:00:02.906Z,2.7
2019-01-13T12:15:03.151Z,2.6
2019-01-13T12:30:02.499Z,2.4
2019-01-13T12:45:03.052Z,2.2
2019-01-13T13:00:03.461Z,2.2
2019-01-13T13:15:02.920Z,2
2019-01-13T13:30:03.067Z,2
2019-01-13T13:45:03.226Z,1.9
2019-01-13T14:00:02.506Z,1.9
2019-01-13T14:15:02.975Z,2
2019-01-13T14:30:03.302Z,2
2019-01-13T14:45:02.477Z,2.1
2019-01-13T15:00:02.788Z,2.1
2019-01-13T15:15:03.047Z,2.1
2019-01-13T15:30:02.375Z,2.2
2019-01-13T15:45:02.819Z,2.4
2019-01-13T16:00:03.149Z,2.5
2019-01-13T16:15:02.460Z,2.5
2019-01-13T16:30:02.897Z,2.6
2019-01-13T16:45:03.222Z,2.6
2019-01-13T17:00:02.541Z,2.8
2019-01-13T17:15:02.968Z,3.1
2019-01-13T17:30:03.213Z,3.2
2019-01-13T17:45:02.719Z,3.4
2019-01-13T18:00:02.978Z,3.6
2019-01-13T18:15:03.138Z,3.8
2019-01-13T18:30:03.378Z,3.8
2019-01-13T18:45:02.750Z,3.8
2019-01-13T19:00:02.988Z,3.8
2019-01-13T19:15:03.190Z,4
2019-01-13T19:30:02.709Z,4.2
2019-01-13T19:45:03.101Z,4.4
2019-01-13T20:00:03.241Z,4.4
2019-01-13T20:15:02.569Z,4.5
2019-01-13T20:30:02.992Z,4.6
2019-01-13T20:45:03.294Z,4.7
2019-01-13T21:00:02.740Z,4.8
2019-01-13T21:15:02.996Z,4.9
2019-01-13T21:30:03.404Z,4.8
2019-01-13T21:45:02.832Z,4.9
2019-01-13T22:00:02.936Z,5.2
2019-01-13T22:15:03.298Z,5.2
2019-01-13T22:30:02.660Z,5.2
2019-01-13T22:45:02.902Z,5.1
2019-01-13T23:00:03.159Z,5.1
2019-01-13T23:15:03.361Z,5.1
2019-01-13T23:30:02.671Z,5
2019-01-13T23:45:03.058Z,4.9
